Don's Testing Zone


Current Conditions
weather data
source:

National Weather Service
Clear Searcy, AR
Clear, 54°F
Sunday, December 10, 2017 5:56 PM CST
Temperature: 54°F/12°C
Humidity: 41%
Barometer: 30.16in/1022.3mb Barometer Steady
Wind: W at 7mph/11kmh
View other cities:
Searcy | Little Rock | Hot Springs | Russellville | More...
Astronomical Conditions (Clear Sky Clock)
Searcy Clear Sky Clock
    

Radar Images

NWS
    Wx Underground

NWS METAR weather data

ADDS - METARS form results





Aviation Digital Data Service (ADDS) Output produced by METARs form (0015 UTC 11 December 2017) found at http://www.aviationweather.gov/adds/metars/ 

KSRC 102356Z AUTO 21006KT 10SM CLR 12/M01 A3016 RMK AO2 SLP223 6//// T0117101110167 20106 53004

KSRC 102256Z AUTO 19005KT 10SM CLR 11/M01 A3015 RMK AO2 SLP220 T01061011

KSRC 102156Z AUTO 20008KT 10SM CLR 16/M02 A3014 RMK AO2 SLP216 T01611022

KSRC 102056Z AUTO 20009KT 10SM CLR 17/M03 A3015 RMK AO2 SLP219 6//// T0167102856025

KSRC 101956Z AUTO 23010G17KT 10SM CLR 16/M03 A3016 RMK AO2 SLP222 T01611033

KSRC 101856Z AUTO 21009G18KT 10SM CLR 16/M03 A3017 RMK AO2 SLP227 T01561028

KSRC 101756Z AUTO 21009KT 10SM CLR 13/M03 A3022 RMK AO2 SLP244 6//// T0133102810133 21067

KSRC 101656Z AUTO 10SM CLR 10/M03 RMK AO2 SLPNO T01001028 $

KSRC 101556Z AUTO 21006KT 10SM CLR 07/M02 A3029 RMK AO2 SLP267 T00671022

KSRC 101456Z AUTO 20003KT 10SM CLR 02/M01 A3031 RMK AO2 SLP274 T00171011 53000FZRANO

KSRC 101356Z AUTO 00000KT 10SM CLR M04/M04 A3031 RMK AO2 SLP274 T10441044 FZRANO

KSRC 101256Z AUTO 23005KT 10SM CLR M07/M07 A3030 RMK AO2 SLP269 T10671067 FZRANO

KSRC 101156Z AUTO 00000KT 10SM CLR M07/M07 A3031 RMK AO2 SLP273 6//// 7////T10671067 11011 21067 58002 FZRANO

KSRC 101056Z AUTO 00000KT 10SM CLR M05/M05 A3031 RMK AO2 SLP275 T10501050 FZRANO

KSRC 100956Z AUTO 00000KT 10SM CLR M06/M06 A3032 RMK AO2 SLP277 T10561056 FZRANO

KSRC 100856Z AUTO 00000KT 10SM CLR M04/M05 A3031 RMK AO2 SLP276 6//// T1044105053005 FZRANO

KSRC 100756Z AUTO 00000KT 10SM CLR M04/M06 A3030 RMK AO2 SLP272 T10441056 FZRANO

KSRC 100656Z AUTO 18003KT 10SM CLR M04/M05 A3030 RMK AO2 SLP270 T10391050 FZRANO

KSRC 100556Z AUTO 00000KT 10SM CLR M02/M06 A3030 RMK AO2 SLP270 6//// T1022105610067 21033 51008 FZRANO

KSRC 100456Z AUTO 28003KT 10SM CLR 00/M05 A3029 RMK AO2 SLP267 T00001050401111078 FZRANO

KSRC 100356Z AUTO 28003KT 10SM CLR M01/M04 A3029 RMK AO2 SLP268 T10111044 FZRANO

KSRC 100256Z AUTO 26003KT 10SM CLR M01/M04 A3027 RMK AO2 SLP261 6//// T10111044FZRANO

KSRC 100156Z AUTO 00000KT 10SM CLR 00/M05 RMK AO2 SLPNO T00001050 FZRANO $

KSRC 100056Z AUTO 33004KT 10SM CLR 06/M07 A3023 RMK AO2 SLP248 T00611072